createdAt,value
2023-05-01T00:02:10.987Z,100620.72
2023-05-01T00:04:39.507Z,100607.47
2023-05-01T00:07:08.055Z,100610.00
2023-05-01T00:09:36.690Z,100603.78
2023-05-01T00:12:05.635Z,100598.06
2023-05-01T00:14:34.173Z,100594.50
2023-05-01T00:17:03.547Z,100594.38
2023-05-01T00:19:33.117Z,100596.53
2023-05-01T00:22:02.352Z,100584.78
2023-05-01T00:24:30.912Z,100581.84
2023-05-01T00:26:59.538Z,100582.50
2023-05-01T00:29:28.064Z,100572.75
2023-05-01T00:31:56.861Z,100572.44
2023-05-01T00:34:25.884Z,100569.66
2023-05-01T00:36:54.389Z,100569.25
2023-05-01T00:39:22.684Z,100570.25
2023-05-01T00:41:51.213Z,100570.50
2023-05-01T00:44:19.734Z,100563.88
2023-05-01T00:46:48.990Z,100561.50
2023-05-01T00:49:17.811Z,100564.84
2023-05-01T00:51:51.022Z,100554.81
2023-05-01T00:54:20.078Z,100551.63
2023-05-01T00:56:53.672Z,100539.94
2023-05-01T00:59:22.698Z,100543.03
2023-05-01T01:04:20.682Z,100536.06
2023-05-01T01:07:17.372Z,100538.03
2023-05-01T01:10:07.167Z,100531.38
2023-05-01T01:13:07.801Z,100523.44
2023-05-01T01:15:46.997Z,100519.78
2023-05-01T01:18:49.016Z,100521.34
2023-05-01T01:21:39.779Z,100513.22
2023-05-01T01:24:49.864Z,100514.91
2023-05-01T01:28:07.475Z,100510.56
2023-05-01T01:31:22.307Z,100506.41
2023-05-01T01:34:29.571Z,100509.06
2023-05-01T01:37:26.743Z,100503.75
2023-05-01T01:40:05.225Z,100503.88
2023-05-01T01:42:43.296Z,100495.56
2023-05-01T01:45:20.660Z,100500.03
2023-05-01T01:47:49.880Z,100497.53
2023-05-01T01:50:20.196Z,100498.63
2023-05-01T01:52:52.335Z,100496.69
2023-05-01T01:55:27.875Z,100486.94
2023-05-01T01:57:56.359Z,100495.44
2023-05-01T02:00:25.165Z,100488.34
2023-05-01T02:02:55.314Z,100484.72
2023-05-01T02:05:23.968Z,100487.38
2023-05-01T02:07:54.004Z,100478.28
2023-05-01T02:10:24.557Z,100481.63
2023-05-01T02:12:54.506Z,100476.19
2023-05-01T02:15:23.620Z,100472.16
2023-05-01T02:17:53.744Z,100470.50
2023-05-01T02:20:23.447Z,100471.47
2023-05-01T02:22:53.771Z,100453.91
2023-05-01T02:25:22.486Z,100452.25
2023-05-01T02:28:22.881Z,100460.31
2023-05-01T02:30:52.797Z,100452.50
2023-05-01T02:33:21.497Z,100452.00
2023-05-01T02:35:50.196Z,100450.16
2023-05-01T02:38:18.843Z,100446.00
2023-05-01T02:40:55.218Z,100439.84
2023-05-01T02:43:24.269Z,100435.00
2023-05-01T02:45:55.218Z,100436.53
2023-05-01T02:48:29.558Z,100435.41
2023-05-01T02:50:59.756Z,100431.78
2023-05-01T02:53:28.299Z,100438.22
2023-05-01T02:55:56.992Z,100422.75
2023-05-01T02:58:25.160Z,100422.91
2023-05-01T03:00:53.690Z,100424.84
2023-05-01T03:03:22.306Z,100418.34
2023-05-01T03:05:51.852Z,100412.78
2023-05-01T03:08:19.948Z,100415.72
2023-05-01T03:10:48.111Z,100405.00
2023-05-01T03:13:16.816Z,100406.44
2023-05-01T03:15:46.587Z,100408.09
2023-05-01T03:18:15.072Z,100404.34
2023-05-01T03:20:52.192Z,100395.81
2023-05-01T03:23:21.245Z,100401.25
2023-05-01T03:25:49.485Z,100393.56
2023-05-01T03:28:17.676Z,100392.31
2023-05-01T03:30:46.458Z,100390.38
2023-05-01T03:33:14.609Z,100384.38
2023-05-01T03:35:42.827Z,100392.22
2023-05-01T03:38:11.801Z,100377.31
2023-05-01T03:40:40.424Z,100380.63
2023-05-01T03:43:08.515Z,100377.56
2023-05-01T03:45:37.101Z,100375.22
2023-05-01T03:48:06.089Z,100368.41
2023-05-01T03:50:34.615Z,100365.75
2023-05-01T03:53:02.796Z,100369.75
2023-05-01T03:55:31.297Z,100365.72
2023-05-01T03:58:00.666Z,100363.31
2023-05-01T04:00:28.964Z,100357.56
2023-05-01T04:02:57.780Z,100365.22
2023-05-01T04:05:26.590Z,100356.88
2023-05-01T04:07:55.158Z,100369.97
2023-05-01T04:10:23.722Z,100364.53
2023-05-01T04:12:52.321Z,100362.00
2023-05-01T04:15:22.759Z,100364.59
2023-05-01T04:17:51.466Z,100361.09
2023-05-01T04:20:20.348Z,100365.81
2023-05-01T04:22:49.317Z,100371.34
2023-05-01T04:25:17.692Z,100363.81
2023-05-01T04:27:46.449Z,100370.47
2023-05-01T04:30:15.106Z,100364.59
2023-05-01T04:32:43.795Z,100369.44
2023-05-01T04:35:12.277Z,100373.59
2023-05-01T04:37:40.655Z,100368.41
2023-05-01T04:40:11.637Z,100361.28
2023-05-01T04:42:40.702Z,100366.88
2023-05-01T04:45:09.481Z,100362.81
2023-05-01T04:47:38.108Z,100364.00
2023-05-01T04:50:07.331Z,100355.22
2023-05-01T04:52:36.003Z,100352.44
2023-05-01T04:55:04.687Z,100355.75
2023-05-01T04:57:33.173Z,100353.81
2023-05-01T05:00:03.307Z,100350.56
2023-05-01T05:02:32.081Z,100347.28
2023-05-01T05:05:00.390Z,100360.34
2023-05-01T05:07:29.007Z,100358.88
2023-05-01T05:09:57.699Z,100365.94
2023-05-01T05:12:26.486Z,100361.50
2023-05-01T05:14:55.018Z,100362.56
2023-05-01T05:17:23.485Z,100359.81
2023-05-01T05:19:52.063Z,100360.56
2023-05-01T05:22:20.617Z,100365.31
2023-05-01T05:24:49.419Z,100365.25
2023-05-01T05:27:18.127Z,100351.75
2023-05-01T05:29:46.869Z,100352.09
2023-05-01T05:32:15.406Z,100356.63
2023-05-01T05:34:43.596Z,100352.63
2023-05-01T05:37:12.615Z,100343.63
2023-05-01T05:39:40.689Z,100352.03
2023-05-01T05:42:09.269Z,100346.44
2023-05-01T05:44:37.520Z,100345.13
2023-05-01T05:47:06.315Z,100345.13
2023-05-01T05:49:35.178Z,100343.81
2023-05-01T05:52:03.375Z,100343.97
2023-05-01T05:54:31.928Z,100335.69
2023-05-01T05:57:00.544Z,100349.13
2023-05-01T05:59:29.358Z,100347.31
2023-05-01T06:01:58.067Z,100335.69
2023-05-01T06:04:26.432Z,100340.19
2023-05-01T06:06:55.190Z,100339.66
2023-05-01T06:09:24.120Z,100334.19
2023-05-01T06:11:52.684Z,100324.03
2023-05-01T06:14:21.138Z,100322.81
2023-05-01T06:16:49.657Z,100329.47
2023-05-01T06:19:18.236Z,100326.09
2023-05-01T06:21:46.778Z,100323.91
2023-05-01T06:24:16.026Z,100327.34
2023-05-01T06:26:44.388Z,100331.16
2023-05-01T06:29:12.938Z,100319.00
2023-05-01T06:31:41.876Z,100316.19
2023-05-01T06:34:10.525Z,100320.81
2023-05-01T06:36:39.249Z,100324.19
2023-05-01T06:39:07.749Z,100319.88
2023-05-01T06:41:36.304Z,100310.28
2023-05-01T06:44:05.181Z,100313.97
2023-05-01T06:46:34.042Z,100320.66
2023-05-01T06:49:02.132Z,100305.66
2023-05-01T06:51:31.775Z,100315.38
2023-05-01T06:54:00.384Z,100314.44
2023-05-01T06:56:28.914Z,100304.78
2023-05-01T06:58:57.582Z,100308.19
2023-05-01T07:01:25.983Z,100308.28
2023-05-01T07:03:54.572Z,100315.81
2023-05-01T07:06:23.273Z,100315.69
2023-05-01T07:08:52.065Z,100301.25
2023-05-01T07:11:20.590Z,100310.56
2023-05-01T07:13:49.092Z,100305.44
2023-05-01T07:16:17.877Z,100296.78
2023-05-01T07:18:46.373Z,100297.84
2023-05-01T07:21:15.104Z,100294.75
2023-05-01T07:23:43.741Z,100295.28
2023-05-01T07:26:12.792Z,100296.81
2023-05-01T07:28:41.897Z,100301.38
2023-05-01T07:31:11.627Z,100292.69
2023-05-01T07:33:40.424Z,100293.06
2023-05-01T07:36:09.288Z,100292.06
2023-05-01T07:38:38.008Z,100284.44
2023-05-01T07:41:06.748Z,100287.72
2023-05-01T07:43:35.468Z,100276.78
2023-05-01T07:46:04.109Z,100281.75
2023-05-01T07:48:35.039Z,100281.53
2023-05-01T07:51:04.533Z,100281.94
2023-05-01T07:53:33.192Z,100280.50
2023-05-01T07:56:11.528Z,100277.16
2023-05-01T07:58:41.649Z,100278.00
2023-05-01T08:01:10.721Z,100273.44
2023-05-01T08:03:39.557Z,100273.25
2023-05-01T08:06:08.462Z,100271.97
2023-05-01T08:08:37.103Z,100274.84
2023-05-01T08:11:05.794Z,100256.88
2023-05-01T08:13:34.327Z,100270.97
2023-05-01T08:16:06.380Z,100261.22
2023-05-01T08:18:35.301Z,100259.75
2023-05-01T08:21:04.004Z,100263.69
2023-05-01T08:23:32.881Z,100265.53
2023-05-01T08:26:02.428Z,100255.56
2023-05-01T08:28:31.191Z,100259.28
2023-05-01T08:30:59.665Z,100252.19
2023-05-01T08:33:28.304Z,100255.25
2023-05-01T08:35:57.024Z,100262.41
2023-05-01T08:38:25.584Z,100256.66
2023-05-01T08:40:56.951Z,100263.91
2023-05-01T08:43:26.296Z,100256.44
2023-05-01T08:45:57.504Z,100254.88
2023-05-01T08:48:27.554Z,100246.44
2023-05-01T08:50:59.566Z,100250.53
2023-05-01T08:53:28.757Z,100248.06
2023-05-01T08:56:01.576Z,100244.72
2023-05-01T08:58:30.937Z,100235.31
2023-05-01T09:01:01.810Z,100227.97
2023-05-01T09:03:33.346Z,100233.13
2023-05-01T09:06:02.388Z,100232.97
2023-05-01T09:08:31.549Z,100222.88
2023-05-01T09:11:01.252Z,100221.25
2023-05-01T09:13:29.875Z,100218.59
2023-05-01T09:15:58.498Z,100216.63
2023-05-01T09:18:27.172Z,100213.06
2023-05-01T09:20:56.151Z,100206.81
2023-05-01T09:23:24.867Z,100204.88
2023-05-01T09:25:54.031Z,100203.31
2023-05-01T09:28:45.789Z,100199.56
2023-05-01T09:31:24.084Z,100204.88
2023-05-01T09:34:02.684Z,100195.06
2023-05-01T09:36:34.517Z,100194.22
2023-05-01T09:39:03.319Z,100191.91
2023-05-01T09:41:33.537Z,100186.00
2023-05-01T09:44:02.598Z,100178.13
2023-05-01T09:46:43.785Z,100181.00
2023-05-01T09:49:13.224Z,100171.06
2023-05-01T09:51:41.831Z,100177.25
2023-05-01T09:54:21.697Z,100165.78
2023-05-01T09:56:51.242Z,100177.97
2023-05-01T09:59:22.138Z,100171.88
2023-05-01T10:01:51.479Z,100173.50
2023-05-01T10:04:20.193Z,100169.53
2023-05-01T10:06:48.750Z,100155.44
2023-05-01T10:09:29.832Z,100155.63
2023-05-01T10:11:59.481Z,100148.97
2023-05-01T10:14:29.790Z,100142.97
2023-05-01T10:16:59.445Z,100148.53
2023-05-01T10:19:28.286Z,100151.22
2023-05-01T10:21:57.069Z,100142.84
2023-05-01T10:24:25.867Z,100148.84
2023-05-01T10:26:55.564Z,100146.16
2023-05-01T10:29:25.778Z,100143.66
2023-05-01T10:31:54.488Z,100140.09
2023-05-01T10:34:27.722Z,100133.28
2023-05-01T10:37:21.662Z,100132.75
2023-05-01T10:39:50.486Z,100129.22
2023-05-01T10:42:19.137Z,100127.63
2023-05-01T10:44:48.039Z,100122.69
2023-05-01T10:47:28.791Z,100117.53
2023-05-01T10:50:10.140Z,100110.06
2023-05-01T10:53:12.453Z,100096.78
2023-05-01T10:55:43.547Z,100097.22
2023-05-01T10:58:12.510Z,100092.84
2023-05-01T11:00:41.163Z,100093.69
2023-05-01T11:03:24.476Z,100084.16
2023-05-01T11:06:02.382Z,100082.00
2023-05-01T11:08:32.244Z,100081.72
2023-05-01T11:11:19.407Z,100080.72
2023-05-01T11:14:07.597Z,100075.72
2023-05-01T11:16:39.103Z,100074.50
2023-05-01T11:19:08.304Z,100073.09
2023-05-01T11:21:39.116Z,100066.13
2023-05-01T11:24:09.020Z,100069.03
2023-05-01T11:26:42.829Z,100053.50
2023-05-01T11:29:13.255Z,100043.91
2023-05-01T11:31:41.811Z,100043.31
2023-05-01T11:34:10.493Z,100033.34
2023-05-01T11:36:53.525Z,100034.91
2023-05-01T11:39:22.278Z,100031.06
2023-05-01T11:41:51.024Z,100032.19
2023-05-01T11:44:20.008Z,100012.81
2023-05-01T11:46:58.272Z,100012.44
2023-05-01T11:49:29.845Z,100015.06
2023-05-01T11:51:59.376Z,100011.91
2023-05-01T11:54:28.481Z,100025.44
2023-05-01T11:57:01.954Z,100007.91
2023-05-01T11:59:30.651Z,100015.34
2023-05-01T12:01:59.341Z,100013.31
2023-05-01T12:04:32.365Z,100001.41
2023-05-01T12:07:01.377Z,100006.50
2023-05-01T12:09:30.598Z,99994.47
2023-05-01T12:12:02.015Z,99997.16
2023-05-01T12:14:30.671Z,99991.38
2023-05-01T12:16:59.313Z,99996.13
2023-05-01T12:19:27.893Z,99987.19
2023-05-01T12:22:11.500Z,99974.56
2023-05-01T12:24:40.063Z,99974.66
2023-05-01T12:27:09.275Z,99971.56
2023-05-01T12:29:44.809Z,99979.78
2023-05-01T12:32:13.348Z,99960.19
2023-05-01T12:34:42.256Z,99969.13
2023-05-01T12:37:11.710Z,99972.94
2023-05-01T12:39:42.451Z,99965.56
2023-05-01T12:42:16.942Z,99964.19
2023-05-01T12:44:46.048Z,99952.94
2023-05-01T12:47:14.958Z,99954.63
2023-05-01T12:49:43.665Z,99956.09
2023-05-01T12:52:12.258Z,99952.03
2023-05-01T12:54:44.705Z,99947.72
2023-05-01T12:57:18.281Z,99947.72
2023-05-01T12:59:49.598Z,99944.09
2023-05-01T13:02:19.689Z,99939.16
2023-05-01T13:04:49.576Z,99937.66
2023-05-01T13:07:21.847Z,99933.34
2023-05-01T13:09:59.325Z,99947.22
2023-05-01T13:12:29.582Z,99934.28
2023-05-01T13:14:58.608Z,99929.34
2023-05-01T13:17:32.834Z,99928.88
2023-05-01T13:20:06.262Z,99934.41
2023-05-01T13:22:36.738Z,99931.81
2023-05-01T13:25:18.399Z,99923.38
2023-05-01T13:27:54.398Z,99923.25
2023-05-01T13:30:34.198Z,99927.78
2023-05-01T13:33:03.223Z,99922.97
2023-05-01T13:35:32.491Z,99934.50
2023-05-01T13:38:01.790Z,99921.91
2023-05-01T13:40:30.699Z,99922.63
2023-05-01T13:42:59.323Z,99920.16
2023-05-01T13:45:28.141Z,99926.41
2023-05-01T13:47:58.495Z,99922.13
2023-05-01T13:50:27.798Z,99918.03
2023-05-01T13:52:56.538Z,99914.84
2023-05-01T13:55:26.296Z,99911.34
2023-05-01T13:57:54.941Z,99910.41
2023-05-01T14:00:24.181Z,99916.28
2023-05-01T14:02:56.691Z,99905.13
2023-05-01T14:05:29.683Z,99905.47
2023-05-01T14:08:00.379Z,99908.03
2023-05-01T14:10:30.248Z,99906.63
2023-05-01T14:13:03.894Z,99903.34
2023-05-01T14:15:35.185Z,99904.72
2023-05-01T14:18:08.116Z,99895.22
2023-05-01T14:20:36.693Z,99902.28
2023-05-01T14:23:06.152Z,99896.16
2023-05-01T14:25:35.475Z,99891.81
2023-05-01T14:28:08.008Z,99893.56
2023-05-01T14:30:39.238Z,99890.50
2023-05-01T14:33:11.327Z,99889.25
2023-05-01T14:35:51.178Z,99884.22
2023-05-01T14:38:22.016Z,99883.84
2023-05-01T14:40:50.841Z,99887.63
2023-05-01T14:43:22.733Z,99882.94
2023-05-01T14:45:51.509Z,99879.28
2023-05-01T14:48:34.354Z,99886.44
2023-05-01T14:51:02.897Z,99876.47
2023-05-01T14:53:34.877Z,99876.72
2023-05-01T14:56:03.654Z,99874.00
2023-05-01T14:58:32.511Z,99874.00
2023-05-01T15:01:03.335Z,99878.00
2023-05-01T15:03:32.313Z,99885.88
2023-05-01T15:06:00.976Z,99874.00
2023-05-01T15:08:30.474Z,99881.16
2023-05-01T15:10:59.051Z,99870.56
2023-05-01T15:13:27.884Z,99866.81
2023-05-01T15:15:56.765Z,99865.56
2023-05-01T15:18:25.715Z,99859.53
2023-05-01T15:20:54.386Z,99857.91
2023-05-01T15:23:22.923Z,99858.13
2023-05-01T15:25:51.967Z,99860.00
2023-05-01T15:28:20.454Z,99856.84
2023-05-01T15:30:49.298Z,99862.72
2023-05-01T15:33:19.313Z,99858.91
2023-05-01T15:35:51.141Z,99863.50
2023-05-01T15:38:20.510Z,99856.72
2023-05-01T15:40:49.962Z,99861.28
2023-05-01T15:43:18.652Z,99861.16
2023-05-01T15:45:47.319Z,99861.88
2023-05-01T15:48:16.006Z,99863.63
2023-05-01T15:50:45.586Z,99850.03
2023-05-01T15:53:17.220Z,99858.97
2023-05-01T15:55:46.133Z,99853.47
2023-05-01T15:58:16.112Z,99855.47
2023-05-01T16:00:48.214Z,99851.72
2023-05-01T16:03:18.172Z,99862.84
2023-05-01T16:05:48.070Z,99848.50
2023-05-01T16:08:16.650Z,99854.72
2023-05-01T16:10:45.171Z,99856.50
2023-05-01T16:13:13.867Z,99856.03
2023-05-01T16:15:42.647Z,99866.06
2023-05-01T16:18:19.765Z,99854.81
2023-05-01T16:20:48.390Z,99860.44
2023-05-01T16:23:17.273Z,99853.31
2023-05-01T16:25:46.068Z,99859.72
2023-05-01T16:28:15.026Z,99850.25
2023-05-01T16:30:44.452Z,99850.00
2023-05-01T16:33:23.742Z,99841.13
2023-05-01T16:35:52.392Z,99848.59
2023-05-01T16:38:21.519Z,99842.84
2023-05-01T16:40:50.066Z,99840.13
2023-05-01T16:43:18.574Z,99841.31
2023-05-01T16:45:48.060Z,99839.09
2023-05-01T16:48:24.727Z,99843.16
2023-05-01T16:50:53.680Z,99837.66
2023-05-01T16:53:23.646Z,99842.56
2023-05-01T16:55:52.980Z,99846.13
2023-05-01T16:58:21.694Z,99839.13
2023-05-01T17:00:50.600Z,99834.41
2023-05-01T17:03:19.455Z,99839.44
2023-05-01T17:05:47.957Z,99838.66
2023-05-01T17:08:16.664Z,99841.16
2023-05-01T17:10:45.454Z,99850.97
2023-05-01T17:13:16.008Z,99841.69
2023-05-01T17:15:44.774Z,99844.22
2023-05-01T17:18:13.443Z,99846.84
2023-05-01T17:20:41.920Z,99852.69
2023-05-01T17:23:10.909Z,99847.63
2023-05-01T17:25:39.468Z,99859.88
2023-05-01T17:28:08.188Z,99860.56
2023-05-01T17:30:36.626Z,99860.81
2023-05-01T17:33:07.888Z,99859.84
2023-05-01T17:35:36.455Z,99860.75
2023-05-01T17:38:05.063Z,99857.91
2023-05-01T17:40:33.721Z,99854.00
2023-05-01T17:43:03.155Z,99859.63
2023-05-01T17:45:31.661Z,99851.75
2023-05-01T17:48:00.969Z,99863.44
2023-05-01T17:50:29.856Z,99866.19
2023-05-01T17:52:58.688Z,99876.56
2023-05-01T17:55:27.985Z,99865.06
2023-05-01T17:57:56.971Z,99871.13
2023-05-01T18:00:27.611Z,99880.88
2023-05-01T18:02:56.440Z,99883.63
2023-05-01T18:05:25.019Z,99881.03
2023-05-01T18:07:53.946Z,99882.09
2023-05-01T18:10:23.917Z,99887.28
2023-05-01T18:12:52.646Z,99887.34
2023-05-01T18:15:22.977Z,99892.56
2023-05-01T18:17:51.800Z,99896.72
2023-05-01T18:20:20.795Z,99906.25
2023-05-01T18:22:49.275Z,99898.47
2023-05-01T18:25:18.416Z,99898.97
2023-05-01T18:27:47.450Z,99901.50
2023-05-01T18:30:16.963Z,99903.25
2023-05-01T18:32:48.819Z,99903.50
2023-05-01T18:35:19.053Z,99906.66
2023-05-01T18:37:47.773Z,99893.47
2023-05-01T18:40:16.486Z,99897.84
2023-05-01T18:42:45.501Z,99898.44
2023-05-01T18:45:14.249Z,99895.97
2023-05-01T18:47:42.939Z,99893.91
2023-05-01T18:50:11.915Z,99895.75
2023-05-01T18:52:42.246Z,99890.78
2023-05-01T18:55:11.579Z,99895.31
2023-05-01T18:57:41.832Z,99898.69
2023-05-01T19:00:12.157Z,99898.44
2023-05-01T19:02:40.792Z,99897.44
2023-05-01T19:05:10.388Z,99901.19
2023-05-01T19:07:39.053Z,99908.22
2023-05-01T19:10:08.261Z,99914.22
2023-05-01T19:12:36.841Z,99911.13
2023-05-01T19:15:05.473Z,99903.50
2023-05-01T19:17:34.059Z,99911.78
2023-05-01T19:20:04.695Z,99917.34
2023-05-01T19:22:33.291Z,99915.91
2023-05-01T19:25:02.234Z,99923.34
2023-05-01T19:27:31.240Z,99921.09
2023-05-01T19:30:01.396Z,99929.34
2023-05-01T19:32:30.424Z,99925.44
2023-05-01T19:34:58.995Z,99924.00
2023-05-01T19:37:28.971Z,99923.59
2023-05-01T19:39:58.027Z,99922.16
2023-05-01T19:42:27.159Z,99925.25
2023-05-01T19:44:55.811Z,99919.28
2023-05-01T19:47:24.359Z,99917.00
2023-05-01T19:49:53.491Z,99924.44
2023-05-01T19:52:21.973Z,99921.34
2023-05-01T19:54:50.470Z,99923.84
2023-05-01T19:57:18.953Z,99919.69
2023-05-01T19:59:47.623Z,99922.78
2023-05-01T20:02:16.345Z,99918.91
2023-05-01T20:04:44.950Z,99921.16
2023-05-01T20:07:13.275Z,99925.88
2023-05-01T20:09:41.741Z,99915.59
2023-05-01T20:12:10.340Z,99916.84
2023-05-01T20:14:38.480Z,99918.06
2023-05-01T20:17:07.491Z,99920.13
2023-05-01T20:19:39.584Z,99920.34
2023-05-01T20:22:08.734Z,99915.19
2023-05-01T20:24:37.358Z,99919.94
2023-05-01T20:27:05.894Z,99921.16
2023-05-01T20:29:34.391Z,99923.22
2023-05-01T20:32:04.009Z,99925.28
2023-05-01T20:34:32.971Z,99928.75
2023-05-01T20:37:01.404Z,99936.19
2023-05-01T20:39:29.992Z,99940.06
2023-05-01T20:41:59.155Z,99944.00
2023-05-01T20:44:28.014Z,99947.69
2023-05-01T20:46:56.667Z,99948.75
2023-05-01T20:49:25.248Z,99946.91
2023-05-01T20:51:53.920Z,99943.38
2023-05-01T20:54:22.125Z,99939.06
2023-05-01T20:56:50.792Z,99946.25
2023-05-01T20:59:19.218Z,99948.94
2023-05-01T21:01:47.928Z,99951.00
2023-05-01T21:04:16.764Z,99953.88
2023-05-01T21:06:45.693Z,99951.19
2023-05-01T21:09:15.134Z,99951.59
2023-05-01T21:11:43.636Z,99953.25
2023-05-01T21:14:12.378Z,99961.31
2023-05-01T21:16:41.438Z,99955.94
2023-05-01T21:19:13.500Z,99951.19
2023-05-01T21:21:42.015Z,99952.22
2023-05-01T21:24:11.034Z,99954.28
2023-05-01T21:26:40.024Z,99953.84
2023-05-01T21:29:09.854Z,99958.38
2023-05-01T21:31:38.520Z,99962.28
2023-05-01T21:34:07.161Z,99963.13
2023-05-01T21:36:35.704Z,99966.19
2023-05-01T21:39:03.936Z,99963.72
2023-05-01T21:41:32.628Z,99962.91
2023-05-01T21:44:01.328Z,99964.75
2023-05-01T21:46:29.961Z,99972.16
2023-05-01T21:48:58.462Z,99972.38
2023-05-01T21:51:29.891Z,99972.56
2023-05-01T21:53:58.144Z,99960.22
2023-05-01T21:56:26.742Z,99973.59
2023-05-01T21:59:02.815Z,99968.44
2023-05-01T22:01:31.636Z,99960.81
2023-05-01T22:04:00.441Z,99966.38
2023-05-01T22:06:29.548Z,99959.56
2023-05-01T22:08:57.678Z,99965.13
2023-05-01T22:11:26.481Z,99969.66
2023-05-01T22:13:54.955Z,99970.66
2023-05-01T22:16:23.411Z,99974.38
2023-05-01T22:18:51.627Z,99979.75
2023-05-01T22:21:20.191Z,99964.88
2023-05-01T22:23:49.639Z,99976.63
2023-05-01T22:26:18.082Z,99974.16
2023-05-01T22:28:46.781Z,99971.88
2023-05-01T22:31:15.229Z,99970.84
2023-05-01T22:33:43.947Z,99979.03
2023-05-01T22:36:12.532Z,99980.09
2023-05-01T22:38:41.125Z,99980.09
2023-05-01T22:41:09.682Z,99980.09
2023-05-01T22:43:38.182Z,99983.78
2023-05-01T22:46:06.871Z,99978.44
2023-05-01T22:48:35.543Z,99979.66
2023-05-01T22:51:03.810Z,99985.00
2023-05-01T22:53:32.159Z,99981.69
2023-05-01T22:56:00.780Z,99979.22
2023-05-01T22:58:29.361Z,99977.56
2023-05-01T23:00:57.895Z,99984.97
2023-05-01T23:03:26.736Z,99976.31
2023-05-01T23:05:55.439Z,99986.41
2023-05-01T23:08:24.076Z,99981.03
2023-05-01T23:10:52.568Z,99981.22
2023-05-01T23:13:23.631Z,99991.09
2023-05-01T23:15:52.847Z,99992.31
2023-05-01T23:18:33.900Z,99986.97
2023-05-01T23:21:02.615Z,99992.72
2023-05-01T23:23:33.133Z,99997.63
2023-05-01T23:26:01.703Z,99987.97
2023-05-01T23:28:30.523Z,99990.44
2023-05-01T23:31:04.423Z,99989.84
2023-05-01T23:33:37.054Z,99986.31
2023-05-01T23:36:06.718Z,99995.19
2023-05-01T23:38:35.297Z,99992.69
2023-05-01T23:41:04.017Z,99990.22
2023-05-01T23:43:32.868Z,99986.72
2023-05-01T23:46:01.930Z,99989.78
2023-05-01T23:48:30.427Z,99986.47
2023-05-01T23:50:59.277Z,99992.03
2023-05-01T23:53:28.009Z,99990.59
2023-05-01T23:55:56.479Z,99985.41
2023-05-01T23:58:25.593Z,99981.47
